createdAt,value
2018-08-03T00:01:40.826Z,75.02
2018-08-03T00:04:09.605Z,75.73
2018-08-03T00:06:38.387Z,75.81
2018-08-03T00:09:09.546Z,75.67
2018-08-03T00:11:38.441Z,74.57
2018-08-03T00:14:07.336Z,74.40
2018-08-03T00:16:36.066Z,74.48
2018-08-03T00:19:04.955Z,75.20
2018-08-03T00:21:34.098Z,74.24
2018-08-03T00:24:02.826Z,75.09
2018-08-03T00:26:31.602Z,74.53
2018-08-03T00:29:00.466Z,74.62
2018-08-03T00:31:29.232Z,75.59
2018-08-03T00:33:58.006Z,75.28
2018-08-03T00:36:26.821Z,75.13
2018-08-03T00:38:55.689Z,75.14
2018-08-03T00:41:24.454Z,75.12
2018-08-03T00:43:53.259Z,75.88
2018-08-03T00:46:22.027Z,76.14
2018-08-03T00:48:50.763Z,75.09
2018-08-03T00:51:19.575Z,75.79
2018-08-03T00:53:48.325Z,76.40
2018-08-03T00:56:17.098Z,76.36
2018-08-03T00:58:45.807Z,75.27
2018-08-03T01:01:14.570Z,75.87
2018-08-03T01:03:43.309Z,76.13
2018-08-03T01:06:12.053Z,75.78
2018-08-03T01:08:40.810Z,76.00
2018-08-03T01:11:09.604Z,76.81
2018-08-03T01:13:38.737Z,76.41
2018-08-03T01:16:07.493Z,77.17
2018-08-03T01:18:36.278Z,77.17
2018-08-03T01:21:05.068Z,76.90
2018-08-03T01:23:34.249Z,77.41
2018-08-03T01:26:03.150Z,77.21
2018-08-03T01:28:31.929Z,77.08
2018-08-03T01:31:00.842Z,77.30
2018-08-03T01:33:29.602Z,76.45
2018-08-03T01:35:58.357Z,76.48
2018-08-03T01:38:27.158Z,76.67
2018-08-03T01:40:56.284Z,77.44
2018-08-03T01:43:25.109Z,76.72
2018-08-03T01:45:53.843Z,77.48
2018-08-03T01:48:22.635Z,76.75
2018-08-03T01:50:51.476Z,77.35
2018-08-03T01:53:20.243Z,77.17
2018-08-03T01:55:49.001Z,76.75
2018-08-03T01:58:17.762Z,76.64
2018-08-03T02:00:46.569Z,76.22
2018-08-03T02:03:15.371Z,76.08
2018-08-03T02:05:44.318Z,76.44
2018-08-03T02:08:13.277Z,76.94
2018-08-03T02:10:42.096Z,76.68
2018-08-03T02:13:10.835Z,76.34
2018-08-03T02:15:39.612Z,76.19
2018-08-03T02:18:08.468Z,76.27
2018-08-03T02:20:37.328Z,76.12
2018-08-03T02:23:06.079Z,76.00
2018-08-03T02:25:34.870Z,76.05
2018-08-03T02:28:03.695Z,77.05
2018-08-03T02:30:32.626Z,76.71
2018-08-03T02:33:01.480Z,76.32
2018-08-03T02:35:30.224Z,75.96
2018-08-03T02:37:58.998Z,75.55
2018-08-03T02:40:27.765Z,75.89
2018-08-03T02:42:56.871Z,76.14
2018-08-03T02:45:25.738Z,76.91
2018-08-03T02:47:54.517Z,76.43
2018-08-03T02:50:23.306Z,76.77
2018-08-03T02:52:52.120Z,76.16
2018-08-03T02:55:20.931Z,76.72
2018-08-03T02:57:49.755Z,76.72
2018-08-03T03:00:18.675Z,76.88
2018-08-03T03:02:47.530Z,76.71
2018-08-03T03:05:16.428Z,76.61
2018-08-03T03:07:45.227Z,77.44
2018-08-03T03:10:14.017Z,76.88
2018-08-03T03:12:42.811Z,77.61
2018-08-03T03:15:11.640Z,77.61
2018-08-03T03:17:40.383Z,77.98
2018-08-03T03:20:09.166Z,78.10
2018-08-03T03:22:37.946Z,77.25
2018-08-03T03:25:07.056Z,77.51
2018-08-03T03:27:35.838Z,76.89
2018-08-03T03:30:05.523Z,77.09
2018-08-03T03:32:34.409Z,76.76
2018-08-03T03:35:03.370Z,77.19
2018-08-03T03:37:32.168Z,77.04
2018-08-03T03:40:00.947Z,78.11
2018-08-03T03:42:29.718Z,78.39
2018-08-03T03:44:58.456Z,77.95
2018-08-03T03:47:27.248Z,77.93
2018-08-03T03:49:55.981Z,77.63
2018-08-03T03:52:24.769Z,77.85
2018-08-03T03:54:53.653Z,77.87
2018-08-03T03:57:22.789Z,76.93
2018-08-03T03:59:51.584Z,77.31
2018-08-03T04:02:20.355Z,76.93
2018-08-03T04:04:49.145Z,76.10
2018-08-03T04:07:17.950Z,76.62
2018-08-03T04:09:46.730Z,75.75
2018-08-03T04:12:15.530Z,76.31
2018-08-03T04:14:44.355Z,74.96
2018-08-03T04:17:13.171Z,74.74
2018-08-03T04:19:41.957Z,74.83
2018-08-03T04:22:10.753Z,74.51
2018-08-03T04:24:39.510Z,74.74
2018-08-03T04:27:08.299Z,75.11
2018-08-03T04:29:37.070Z,75.60
2018-08-03T04:32:05.878Z,75.38
2018-08-03T04:34:34.717Z,75.08
2018-08-03T04:37:03.490Z,74.67
2018-08-03T04:39:32.313Z,74.19
2018-08-03T04:42:01.123Z,74.12
2018-08-03T04:44:29.961Z,74.27
2018-08-03T04:46:58.715Z,73.40
2018-08-03T04:49:27.511Z,72.92
2018-08-03T04:51:56.302Z,73.96
2018-08-03T04:54:25.127Z,70.57
2018-08-03T04:56:53.886Z,67.69
2018-08-03T04:59:22.667Z,65.44
2018-08-03T05:01:51.497Z,61.13
2018-08-03T05:04:20.342Z,60.17
2018-08-03T05:06:49.148Z,59.66
2018-08-03T05:09:17.966Z,58.19
2018-08-03T05:11:46.779Z,56.36
2018-08-03T05:14:15.487Z,56.55
2018-08-03T05:16:44.284Z,55.37
2018-08-03T05:19:13.026Z,54.05
2018-08-03T05:21:41.814Z,53.25
2018-08-03T05:24:10.596Z,52.49
2018-08-03T05:26:39.518Z,53.77
2018-08-03T05:29:08.350Z,55.79
2018-08-03T05:31:37.126Z,57.28
2018-08-03T05:34:06.299Z,57.35
2018-08-03T05:36:35.103Z,57.44
2018-08-03T05:39:04.240Z,56.17
2018-08-03T05:41:32.963Z,57.04
2018-08-03T05:44:01.882Z,58.22
2018-08-03T05:46:30.841Z,57.02
2018-08-03T05:48:59.623Z,57.77
2018-08-03T05:51:28.479Z,59.61
2018-08-03T05:53:57.249Z,58.84
2018-08-03T05:56:26.170Z,57.49
2018-08-03T05:58:55.327Z,59.00
2018-08-03T06:01:24.204Z,58.33
2018-08-03T06:03:53.228Z,58.14
2018-08-03T06:06:22.059Z,59.75
2018-08-03T06:08:50.829Z,58.47
2018-08-03T06:11:19.615Z,58.63
2018-08-03T06:13:48.381Z,60.08
2018-08-03T06:16:17.417Z,60.02
2018-08-03T06:18:46.234Z,59.43
2018-08-03T06:21:15.446Z,60.08
2018-08-03T06:23:44.299Z,60.34
2018-08-03T06:26:13.189Z,60.19
2018-08-03T06:28:41.940Z,60.69
2018-08-03T06:31:10.778Z,60.38
2018-08-03T06:33:39.553Z,59.92
2018-08-03T06:36:08.313Z,59.55
2018-08-03T06:38:37.082Z,59.78
2018-08-03T06:41:05.866Z,60.01
2018-08-03T06:43:34.651Z,58.76
2018-08-03T06:46:03.479Z,58.86
2018-08-03T06:48:32.294Z,58.11
2018-08-03T06:51:01.201Z,56.47
2018-08-03T06:53:29.937Z,56.87
2018-08-03T06:55:58.758Z,57.31
2018-08-03T06:58:27.622Z,57.16
2018-08-03T07:00:57.792Z,57.22
2018-08-03T07:03:26.635Z,58.31
2018-08-03T07:05:55.566Z,57.16
2018-08-03T07:08:24.390Z,58.56
2018-08-03T07:10:53.330Z,55.33
2018-08-03T07:13:22.141Z,57.33
2018-08-03T07:15:50.926Z,58.43
2018-08-03T07:18:19.781Z,57.06
2018-08-03T07:20:49.428Z,56.78
2018-08-03T07:23:18.323Z,56.19
2018-08-03T07:25:47.198Z,55.76
2018-08-03T07:28:16.221Z,55.39
2018-08-03T07:30:45.127Z,55.01
2018-08-03T07:33:13.917Z,53.97
2018-08-03T07:35:42.766Z,54.41
2018-08-03T07:38:11.568Z,55.80
2018-08-03T07:40:40.762Z,56.29
2018-08-03T07:43:09.683Z,56.61
2018-08-03T07:45:38.579Z,56.23
2018-08-03T07:48:08.122Z,55.17
2018-08-03T07:50:36.850Z,55.82
2018-08-03T07:53:05.665Z,55.02
2018-08-03T07:55:34.425Z,56.06
2018-08-03T07:58:03.576Z,55.27
2018-08-03T08:00:32.371Z,55.43
2018-08-03T08:03:01.163Z,54.86
2018-08-03T08:05:29.887Z,54.19
2018-08-03T08:07:58.735Z,53.90
2018-08-03T08:10:27.465Z,54.67
2018-08-03T08:12:56.238Z,54.53
2018-08-03T08:15:25.202Z,55.58
2018-08-03T08:17:53.923Z,55.73
2018-08-03T08:20:22.742Z,55.78
2018-08-03T08:22:51.643Z,56.56
2018-08-03T08:25:20.882Z,55.00
2018-08-03T08:27:49.622Z,56.09
2018-08-03T08:30:18.547Z,53.84
2018-08-03T08:32:47.338Z,54.08
2018-08-03T08:35:16.131Z,54.67
2018-08-03T08:37:44.916Z,53.98
2018-08-03T08:40:13.679Z,53.36
2018-08-03T08:42:42.482Z,53.70
2018-08-03T08:45:11.341Z,54.02
2018-08-03T08:47:40.284Z,54.12
2018-08-03T08:50:09.675Z,54.21
2018-08-03T08:52:38.491Z,54.36
2018-08-03T08:55:07.289Z,53.42
2018-08-03T08:57:36.036Z,51.68
2018-08-03T09:00:06.553Z,49.66
2018-08-03T09:02:35.419Z,50.53
2018-08-03T09:05:04.359Z,49.26
2018-08-03T09:07:33.268Z,50.13
2018-08-03T09:10:02.207Z,51.12
2018-08-03T09:12:31.052Z,49.78
2018-08-03T09:14:59.809Z,50.06
2018-08-03T09:17:28.597Z,51.80
2018-08-03T09:19:57.338Z,50.74
2018-08-03T09:22:26.153Z,51.19
2018-08-03T09:24:55.490Z,52.02
2018-08-03T09:27:24.707Z,50.48
2018-08-03T09:29:53.508Z,51.42
2018-08-03T09:32:22.372Z,50.01
2018-08-03T09:34:51.237Z,49.26
2018-08-03T09:37:20.006Z,49.61
2018-08-03T09:39:48.778Z,48.62
2018-08-03T09:42:17.639Z,49.65
2018-08-03T09:44:46.515Z,48.69
2018-08-03T09:47:15.334Z,49.88
2018-08-03T09:49:44.119Z,49.16
2018-08-03T09:52:12.914Z,48.05
2018-08-03T09:54:41.687Z,47.74
2018-08-03T09:57:10.478Z,46.99
2018-08-03T09:59:39.231Z,45.19
2018-08-03T10:02:08.545Z,46.75
2018-08-03T10:04:37.326Z,46.75
2018-08-03T10:07:06.077Z,45.83
2018-08-03T10:09:34.958Z,45.79
2018-08-03T10:12:03.810Z,44.79
2018-08-03T10:14:32.922Z,45.80
2018-08-03T10:17:02.047Z,44.57
2018-08-03T10:19:30.788Z,44.68
2018-08-03T10:21:59.595Z,44.14
2018-08-03T10:24:28.587Z,43.43
2018-08-03T10:26:57.505Z,42.22
2018-08-03T10:29:26.294Z,42.52
2018-08-03T10:31:54.997Z,43.24
2018-08-03T10:34:23.786Z,43.45
2018-08-03T10:36:52.987Z,43.55
2018-08-03T10:39:21.742Z,43.02
2018-08-03T10:41:50.509Z,42.10
2018-08-03T10:44:19.388Z,43.30
2018-08-03T10:46:48.112Z,41.41
2018-08-03T10:49:16.933Z,42.92
2018-08-03T10:51:46.121Z,42.36
2018-08-03T10:54:15.025Z,42.24
2018-08-03T10:56:43.807Z,41.61
2018-08-03T10:59:12.671Z,41.94
2018-08-03T11:01:41.587Z,42.84
2018-08-03T11:04:10.524Z,41.34
2018-08-03T11:06:39.351Z,40.83
2018-08-03T11:09:09.067Z,41.15
2018-08-03T11:11:37.932Z,41.97
2018-08-03T11:14:07.523Z,41.62
2018-08-03T11:16:36.324Z,40.52
2018-08-03T11:19:10.129Z,40.65
2018-08-03T11:21:38.891Z,41.21
2018-08-03T11:24:07.800Z,43.04
2018-08-03T11:26:36.773Z,40.20
2018-08-03T11:29:05.973Z,40.60
2018-08-03T11:31:34.731Z,41.30
2018-08-03T11:34:03.543Z,42.12
2018-08-03T11:36:32.374Z,42.84
2018-08-03T11:39:01.186Z,43.70
2018-08-03T11:41:29.982Z,43.31
2018-08-03T11:43:59.101Z,43.12
2018-08-03T11:46:27.962Z,44.80
2018-08-03T11:48:56.759Z,44.29
2018-08-03T11:51:25.565Z,45.54
2018-08-03T11:53:54.425Z,45.48
2018-08-03T11:56:23.403Z,44.72
2018-08-03T11:58:52.481Z,44.31
2018-08-03T12:01:21.221Z,43.67
2018-08-03T12:03:50.042Z,43.64
2018-08-03T12:06:18.828Z,44.05
2018-08-03T12:08:47.616Z,44.88
2018-08-03T12:11:16.442Z,43.67
2018-08-03T12:13:45.222Z,44.00
2018-08-03T12:16:13.996Z,44.25
2018-08-03T12:18:42.742Z,43.69
2018-08-03T12:21:11.538Z,45.42
2018-08-03T12:23:40.363Z,43.69
2018-08-03T12:26:09.176Z,43.01
2018-08-03T12:28:37.984Z,44.32
2018-08-03T12:31:06.957Z,44.52
2018-08-03T12:33:35.889Z,44.58
2018-08-03T12:36:04.815Z,44.13
2018-08-03T12:38:33.684Z,43.92
2018-08-03T12:41:02.838Z,43.01
2018-08-03T12:43:31.630Z,43.16
2018-08-03T12:46:00.551Z,43.00
2018-08-03T12:48:29.471Z,43.58
2018-08-03T12:50:58.293Z,43.92
2018-08-03T12:53:27.085Z,42.43
2018-08-03T12:55:55.982Z,44.10
2018-08-03T12:58:24.910Z,43.39
2018-08-03T13:06:04.002Z,43.19
2018-08-03T13:08:32.879Z,42.57
2018-08-03T13:11:01.766Z,42.48
2018-08-03T13:13:30.566Z,44.01
2018-08-03T13:15:59.470Z,44.38
2018-08-03T13:18:28.296Z,43.51
2018-08-03T13:20:57.489Z,42.39
2018-08-03T13:23:26.275Z,42.73
2018-08-03T13:25:55.082Z,42.74
2018-08-03T13:28:24.323Z,43.57
2018-08-03T13:30:53.192Z,43.01
2018-08-03T13:33:22.006Z,41.79
2018-08-03T13:35:50.826Z,42.21
2018-08-03T13:38:19.649Z,42.24
2018-08-03T13:40:48.503Z,44.25
2018-08-03T13:43:17.417Z,43.91
2018-08-03T13:45:46.292Z,45.28
2018-08-03T13:48:15.146Z,45.25
2018-08-03T13:51:01.200Z,43.20
2018-08-03T13:53:32.882Z,43.14
2018-08-03T13:56:02.494Z,44.05
2018-08-03T13:58:31.391Z,42.80
2018-08-03T14:01:19.492Z,41.57
2018-08-03T14:03:48.369Z,42.02
2018-08-03T14:06:17.180Z,42.39
2018-08-03T14:08:49.110Z,43.53
2018-08-03T14:11:18.632Z,43.68
2018-08-03T14:13:47.714Z,45.27
2018-08-03T14:16:16.646Z,43.36
2018-08-03T14:18:46.605Z,44.04
2018-08-03T14:21:15.580Z,44.47
2018-08-03T14:23:44.810Z,43.02
2018-08-03T14:26:13.702Z,43.92
2018-08-03T14:28:42.508Z,43.11
2018-08-03T14:31:11.277Z,43.58
2018-08-03T14:33:40.136Z,43.51
2018-08-03T14:36:09.091Z,43.53
2018-08-03T14:38:37.946Z,44.46
2018-08-03T14:41:08.492Z,44.34
2018-08-03T14:43:38.233Z,43.40
2018-08-03T14:46:07.423Z,42.21
2018-08-03T14:48:37.722Z,44.05
2018-08-03T14:51:07.530Z,46.28
2018-08-03T14:53:36.439Z,45.54
2018-08-03T14:56:05.486Z,45.02
2018-08-03T14:58:34.246Z,44.31
2018-08-03T15:01:03.013Z,43.86
2018-08-03T15:03:31.736Z,45.81
2018-08-03T15:06:00.521Z,45.44
2018-08-03T15:08:29.533Z,44.82
2018-08-03T15:10:59.121Z,46.01
2018-08-03T15:13:28.080Z,46.84
2018-08-03T15:15:56.871Z,45.00
2018-08-03T15:18:26.421Z,43.23
2018-08-03T15:20:55.270Z,44.98
2018-08-03T15:23:24.148Z,45.76
2018-08-03T15:25:53.022Z,46.47
2018-08-03T15:28:21.836Z,46.46
2018-08-03T15:30:50.677Z,47.60
2018-08-03T15:33:19.410Z,46.63
2018-08-03T15:35:48.177Z,46.75
2018-08-03T15:38:16.949Z,47.88
2018-08-03T15:40:46.121Z,48.49
2018-08-03T15:43:15.654Z,48.06
2018-08-03T15:45:44.706Z,46.88
2018-08-03T15:48:13.561Z,46.10
2018-08-03T15:50:42.491Z,45.98
2018-08-03T15:53:11.606Z,47.62
2018-08-03T15:55:40.499Z,46.88
2018-08-03T15:58:09.886Z,46.40
2018-08-03T16:00:38.693Z,47.51
2018-08-03T16:03:07.528Z,47.84
2018-08-03T16:05:36.323Z,47.96
2018-08-03T16:08:05.136Z,47.90
2018-08-03T16:10:33.961Z,48.09
2018-08-03T16:13:02.939Z,48.58
2018-08-03T16:15:31.721Z,48.67
2018-08-03T16:18:00.574Z,48.25
2018-08-03T16:20:29.762Z,48.68
2018-08-03T16:22:58.975Z,48.43
2018-08-03T16:25:28.341Z,49.22
2018-08-03T16:27:57.670Z,48.27
2018-08-03T16:30:26.539Z,48.73
2018-08-03T16:32:56.020Z,48.01
2018-08-03T16:35:25.216Z,48.65
2018-08-03T16:37:54.545Z,49.28
2018-08-03T16:40:23.434Z,49.55
2018-08-03T16:42:52.194Z,49.04
2018-08-03T16:45:20.989Z,49.55
2018-08-03T16:47:49.823Z,48.73
2018-08-03T16:50:18.609Z,48.67
2018-08-03T16:52:47.720Z,48.77
2018-08-03T16:55:16.672Z,49.50
2018-08-03T16:57:45.563Z,49.52
2018-08-03T17:00:17.841Z,50.12
2018-08-03T17:02:47.226Z,49.29
2018-08-03T17:05:29.815Z,49.73
2018-08-03T17:07:58.887Z,49.51
2018-08-03T17:10:27.754Z,50.02
2018-08-03T17:12:57.154Z,51.44
2018-08-03T17:15:26.100Z,51.39
2018-08-03T17:17:55.149Z,51.12
2018-08-03T17:20:24.141Z,51.99
2018-08-03T17:22:53.032Z,50.23
2018-08-03T17:25:21.872Z,50.80
2018-08-03T17:27:50.598Z,51.48
2018-08-03T17:30:20.368Z,51.96
2018-08-03T17:32:49.179Z,50.98
2018-08-03T17:35:18.042Z,51.67
2018-08-03T17:37:46.937Z,51.10
2018-08-03T17:40:15.705Z,51.01
2018-08-03T17:42:44.519Z,51.09
2018-08-03T17:45:13.484Z,51.83
2018-08-03T17:47:42.341Z,51.79
2018-08-03T17:50:11.191Z,50.74
2018-08-03T17:52:40.087Z,51.79
2018-08-03T17:55:08.863Z,52.20
2018-08-03T17:57:37.700Z,52.42
2018-08-03T18:00:06.908Z,53.03
2018-08-03T18:02:35.710Z,53.51
2018-08-03T18:05:05.028Z,54.08
2018-08-03T18:07:33.862Z,54.08
2018-08-03T18:10:02.735Z,53.96
2018-08-03T18:12:31.717Z,54.51
2018-08-03T18:15:00.586Z,54.85
2018-08-03T18:17:29.359Z,53.97
2018-08-03T18:19:58.107Z,54.84
2018-08-03T18:22:26.895Z,53.87
2018-08-03T18:24:55.667Z,54.36
2018-08-03T18:27:24.514Z,55.27
2018-08-03T18:29:53.377Z,54.78
2018-08-03T18:32:22.266Z,55.61
2018-08-03T18:34:51.112Z,54.99
2018-08-03T18:37:19.933Z,55.62
2018-08-03T18:39:48.745Z,55.59
2018-08-03T18:42:17.507Z,55.48
2018-08-03T18:44:46.267Z,54.50
2018-08-03T18:47:15.094Z,55.37
2018-08-03T18:49:44.075Z,55.30
2018-08-03T18:52:13.000Z,57.17
2018-08-03T18:54:41.839Z,56.17
2018-08-03T18:57:10.685Z,57.52
2018-08-03T18:59:39.516Z,58.02
2018-08-03T19:02:08.591Z,56.61
2018-08-03T19:04:37.395Z,57.57
2018-08-03T19:07:06.170Z,56.55
2018-08-03T19:09:34.934Z,58.23
2018-08-03T19:12:04.081Z,56.79
2018-08-03T19:14:32.867Z,57.98
2018-08-03T19:17:01.733Z,58.61
2018-08-03T19:19:30.693Z,59.42
2018-08-03T19:21:59.579Z,59.19
2018-08-03T19:24:28.575Z,59.20
2018-08-03T19:26:57.335Z,59.90
2018-08-03T19:29:26.099Z,60.72
2018-08-03T19:31:54.904Z,60.17
2018-08-03T19:34:23.802Z,59.33
2018-08-03T19:36:52.675Z,60.12
2018-08-03T19:39:21.671Z,59.92
2018-08-03T19:41:50.503Z,60.26
2018-08-03T19:44:19.241Z,60.22
2018-08-03T19:46:49.704Z,59.14
2018-08-03T19:49:18.564Z,59.80
2018-08-03T19:51:47.507Z,60.40
2018-08-03T19:54:16.361Z,61.48
2018-08-03T19:56:45.453Z,60.77
2018-08-03T19:59:14.294Z,60.00
2018-08-03T20:01:43.234Z,59.50
2018-08-03T20:04:12.398Z,60.49
2018-08-03T20:06:41.249Z,60.47
2018-08-03T20:09:11.965Z,59.73
2018-08-03T20:11:40.946Z,60.66
2018-08-03T20:14:09.646Z,60.63
2018-08-03T20:16:38.418Z,60.56
2018-08-03T20:19:07.216Z,60.83
2018-08-03T20:21:35.962Z,60.62
2018-08-03T20:24:05.510Z,60.32
2018-08-03T20:26:34.293Z,60.87
2018-08-03T20:29:03.049Z,60.79
2018-08-03T20:31:31.793Z,60.57
2018-08-03T20:34:00.628Z,61.32
2018-08-03T20:36:29.515Z,61.62
2018-08-03T20:38:58.347Z,62.02
2018-08-03T20:41:27.329Z,61.87
2018-08-03T20:43:56.238Z,62.10
2018-08-03T20:46:25.022Z,62.53
2018-08-03T20:48:53.749Z,61.79
2018-08-03T20:51:22.552Z,61.03
2018-08-03T20:53:51.306Z,61.41
2018-08-03T20:56:20.265Z,61.71
2018-08-03T20:58:49.025Z,61.19
2018-08-03T21:01:17.781Z,60.97
2018-08-03T21:03:46.557Z,60.78
2018-08-03T21:06:15.269Z,60.18
2018-08-03T21:08:44.010Z,60.70
2018-08-03T21:11:13.161Z,60.32
2018-08-03T21:13:41.972Z,60.39
2018-08-03T21:16:10.789Z,60.64
2018-08-03T21:18:39.529Z,59.89
2018-08-03T21:21:08.263Z,59.76
2018-08-03T21:23:37.065Z,60.68
2018-08-03T21:26:06.058Z,60.81
2018-08-03T21:28:34.864Z,60.19
2018-08-03T21:31:03.647Z,61.16
2018-08-03T21:33:32.422Z,61.06
2018-08-03T21:36:01.223Z,61.79
2018-08-03T21:38:30.003Z,61.05
2018-08-03T21:40:58.755Z,61.03
2018-08-03T21:43:27.527Z,61.10
2018-08-03T21:45:56.358Z,61.23
2018-08-03T21:48:25.121Z,61.97
2018-08-03T21:50:53.927Z,62.10
2018-08-03T21:53:22.660Z,61.33
2018-08-03T21:55:51.396Z,61.48
2018-08-03T21:58:20.199Z,61.55
2018-08-03T22:00:49.582Z,61.70
2018-08-03T22:03:18.361Z,62.67
2018-08-03T22:05:47.140Z,62.88
2018-08-03T22:08:15.997Z,62.24
2018-08-03T22:10:44.868Z,62.91
2018-08-03T22:13:13.663Z,63.21
2018-08-03T22:15:42.468Z,62.69
2018-08-03T22:18:12.886Z,63.59
2018-08-03T22:20:41.669Z,64.98
2018-08-03T22:23:10.675Z,65.32
2018-08-03T22:25:39.474Z,65.11
2018-08-03T22:28:08.311Z,66.04
2018-08-03T22:30:37.101Z,65.56
2018-08-03T22:33:05.934Z,66.27
2018-08-03T22:35:34.765Z,66.15
2018-08-03T22:38:03.545Z,65.68
2018-08-03T22:40:32.317Z,66.48
2018-08-03T22:43:01.309Z,65.08
2018-08-03T22:45:30.105Z,64.99
2018-08-03T22:47:59.057Z,64.68
2018-08-03T22:53:06.972Z,65.14
2018-08-03T22:55:35.863Z,65.04
2018-08-03T22:58:04.777Z,64.62
2018-08-03T23:00:34.262Z,65.28
2018-08-03T23:03:03.072Z,65.80
2018-08-03T23:05:31.887Z,65.74
2018-08-03T23:08:01.044Z,65.93
2018-08-03T23:10:29.801Z,65.57
2018-08-03T23:12:58.566Z,64.88
2018-08-03T23:15:27.378Z,64.95
2018-08-03T23:17:56.111Z,66.07
2018-08-03T23:20:25.111Z,66.39
2018-08-03T23:22:53.871Z,66.38
2018-08-03T23:25:22.773Z,66.40
2018-08-03T23:27:51.563Z,65.96
2018-08-03T23:30:20.338Z,65.83
2018-08-03T23:32:49.149Z,65.22
2018-08-03T23:35:17.909Z,66.87
2018-08-03T23:37:46.741Z,66.41
2018-08-03T23:40:15.479Z,66.29
2018-08-03T23:42:44.241Z,65.70
2018-08-03T23:45:12.985Z,66.50
2018-08-03T23:47:41.754Z,65.47
2018-08-03T23:50:16.313Z,65.18
2018-08-03T23:52:46.404Z,65.86
2018-08-03T23:55:15.394Z,66.42
2018-08-03T23:57:44.385Z,65.43
